James Reserve, California Weather observations

Data are for 10 minute period ending at time listed.
 Day   Time   Solar   Ave.   Ave.  Ave.  Vector  Max.   Baro.   Total    
  of    of     Rad.   Air    Rel.  Wind   Wind   Wind  Press.  Precip.   
Year   Day            Temp.  Hum.  Speed  Dir.   Gust                    
2016   (PST)  Kw/m2    F      %     mph   deg.    mph    mb.     in.     
-------------------------------------------------------------------------
 338    2:40   0.00   35.0    27    2.2    56     6.5   835.0    0.00 
 338    2:50   0.00   35.3    27    2.3    61     8.3   835.0    0.00 
 338    3:00   0.00   35.4    27    2.4    63     7.8   835.0    0.00 
 338    3:10   0.00   36.0    26    1.3    27     6.0   835.0    0.00 
 338    3:20   0.00   36.4    26    1.1    72     2.8   835.0    0.00 
 338    3:30   0.00   36.2    26    1.6    54     4.1   835.0    0.00 
 338    3:40   0.00   36.0    26    1.7    56     5.3   835.0    0.00 
 338    3:50   0.00   36.8    24    2.4    48     6.7   835.0    0.00 
 338    4:00   0.00   36.8    25    1.8    46     6.8   835.0    0.00 
 338    4:10   0.00   36.5    27    1.6    58     4.1   835.0    0.00 
 338    4:20   0.00   37.0    26    1.9    53     6.8   835.0    0.00 
 338    4:30   0.00   37.5    27    2.2    61     5.9   835.0    0.00 
 338    4:40   0.00   37.7    27    2.4    54     6.4   835.0    0.00 
 338    4:50   0.00   38.2    26    2.2    52     5.8   835.0    0.00 
 338    5:00   0.00   38.7    23    2.5    59     8.9   835.0    0.00 
 338    5:10   0.00   40.0    19    2.5    52     5.9   835.0    0.00 
 338    5:20   0.00   40.3    19    2.3    47     6.5   835.0    0.00 
 338    5:30   0.00   40.3    16    1.9    49     4.0   835.0    0.00 
 338    5:40   0.00   41.5    13    2.2    34     6.7   836.0    0.00 
 338    5:50   0.00   41.3    13    2.5    60     9.1   836.0    0.00 
 338    6:00   0.00   40.7    14    2.3    53     7.0   836.0    0.00 
 338    6:10   0.00   40.7    14    2.6    64    11.4   836.0    0.00 
 338    6:20   0.00   40.9    14    2.0    47     6.7   836.0    0.00 
 338    6:30   0.00   42.6    10    1.7    58     5.8   836.0    0.00 
 338    6:40   0.00   42.5    12    1.3    52     6.7   836.0    0.00 
 338    6:50   0.00   42.5    12    1.1    50     2.8   836.0    0.00 
 338    7:00   0.00   41.9    13    1.3    61     3.8   836.0    0.00 
 338    7:10   0.01   43.6    10    1.3    34     3.8   836.0    0.00 
 338    7:20   0.01   43.5    14    1.2    60     6.1   836.0    0.00 
 338    7:30   0.01   39.9    21    1.3   216     3.9   836.0    0.00 
 338    7:40   0.01   36.1    29    1.3   227     3.7   836.0    0.00 
 338    7:50   0.02   35.4    32    1.5   224     3.7   836.0    0.00 
 338    8:00   0.02   34.8    32    2.0   219     5.7   836.0    0.00 
 338    8:10   0.02   34.5    32    1.0   195     4.6   837.0    0.00 
 338    8:20   0.03   33.6    38    1.0   186     2.3   837.0    0.00 
 338    8:30   0.03   33.8    37    1.0    96     3.1   837.0    0.00 
 338    8:40   0.03   34.5    37    1.1   196     2.2   837.0    0.00 
 338    8:50   0.03   34.7    37    1.2   204     4.4   837.0    0.00 
 338    9:00   0.03   34.8    38    1.1   200     3.3   837.0    0.00 
 338    9:10   0.03   35.5    35    1.2   197     3.7   837.0    0.00 
 338    9:20   0.04   37.4    32    1.2   210     3.0   838.0    0.00 
 338    9:30   0.03   38.1    32    0.9   167     2.4   838.0    0.00 
 338    9:40   0.04   38.8    36    0.9   186     3.0   838.0    0.00 
 338    9:50   0.04   43.8    20    1.7    65     5.1   838.0    0.00 
 338   10:00   0.04   48.8    14    1.9   218     5.2   838.0    0.00 
 338   10:10   0.04   47.1    18    1.6   226     4.0   838.0    0.00 
 338   10:20   0.04   48.3    14    1.1   245     5.3   838.0    0.00 
 338   10:30   0.24   47.5    19    1.6   219     3.7   838.0    0.00 
 338   10:40   0.47   43.3    24    1.1   169     3.7   838.0    0.00 
 338   10:50   0.42   42.9    25    0.9   212     2.2   838.0    0.00 
 338   11:00   0.14   43.7    25    0.9   164     2.8   838.0    0.00 
 338   11:10   0.21   43.8    24    1.0   221     3.0   838.0    0.00 
 338   11:20   0.55   44.5    23    1.1   202     2.7   838.0    0.00 
 338   11:30   0.72   45.8    23    0.8   177     2.4   838.0    0.00 
 338   11:40   0.71   45.8    22    1.0   158     2.7   838.0    0.00 
 338   11:50   0.71   47.0    24    1.0   208     2.2   838.0    0.00 
 338   12:00   0.72   46.8    23    1.1   221     2.3   837.0    0.00 
 338   12:10   0.72   47.7    23    1.1   212     3.2   837.0    0.00 
 338   12:20   0.71   50.7    22    1.9   209     6.0   837.0    0.00 
 338   12:30   0.70   49.9    24    1.5   204     4.0   837.0    0.00 
 338   12:40   0.70   52.7    20    1.8   215     6.2   837.0    0.00 
 338   12:50   0.68   48.7    21    1.2   219     3.8   837.0    0.00 
 338   13:00   0.67   47.8    22    1.0   239     4.1   837.0    0.00 
 338   13:10   0.65   47.3    22    1.0   215     4.7   837.0    0.00 
 338   13:20   0.17   47.3    24    1.1   233     3.2   837.0    0.00 
 338   13:30   0.17   47.8    24    1.6   233     3.8   837.0    0.00 
 338   13:40   0.13   47.8    22    1.1   184     3.0   837.0    0.00 
 338   13:50   0.04   47.3    23    1.5   225     5.2   837.0    0.00 
 338   14:00   0.04   48.0    24    1.5   206     4.5   837.0    0.00 
 338   14:10   0.04   47.5    23    1.6   221     5.7   837.0    0.00 
 338   14:20   0.13   47.6    25    1.4   248     3.6   837.0    0.00 
 338   14:30   0.06   47.7    23    1.3   250     4.0   837.0    0.00 
 338   14:40   0.03   47.0    28    1.0   189     3.2   837.0    0.00 
 338   14:50   0.03   46.7    28    1.4   208     4.0   837.0    0.00 
 338   15:00   0.03   48.3    24    1.3   249     4.3   837.0    0.00 
 338   15:10   0.03   48.3    31    1.1   201     4.4   837.0    0.00 
 338   15:20   0.03   51.4    22    1.3    50     7.0   837.0    0.00 
 338   15:30   0.02   50.7    25    1.1   200     3.3   837.0    0.00 
 338   15:40   0.02   52.3    20    1.3    83     5.7   837.0    0.00 
 338   15:50   0.02   52.6    19    1.2   119     3.4   837.0    0.00 
 338   16:00   0.01   51.6    20    1.2    78     4.6   837.0    0.00 
 338   16:10   0.01   51.0    24    1.2    56     3.4   837.0    0.00 
 338   16:20   0.01   50.8    22    1.2    71     3.4   837.0    0.00 
 338   16:30   0.00   51.7    18    1.5    78     4.9   837.0    0.00 
 338   16:40   0.00   51.7    20    1.4    62     3.3   837.0    0.00 
 338   16:50   0.00   50.6    20    1.4    57     4.7   837.0    0.00 
 338   17:00   0.00   52.1    17    1.8    82     6.1   837.0    0.00 
 338   17:10   0.00   52.2    17    1.7    55     5.6   837.0    0.00 
 338   17:20   0.00   53.2    15    1.4    66     3.5   837.0    0.00 
 338   17:30   0.00   52.3    18    1.3    68     3.6   837.0    0.00 
 338   17:40   0.00   52.5    16    1.9    73     4.5   837.0    0.00 
 338   17:50   0.00   52.5    16    1.6    76     3.4   837.0    0.00 
 338   18:00   0.00   51.8    19    1.4    65     4.9   837.0    0.00 
 338   18:10   0.00   51.7    18    1.4    63     3.5   838.0    0.00 
 338   18:20   0.00   52.4    17    1.5    63     4.8   838.0    0.00 
 338   18:30   0.00   51.3    19    1.2    56     3.7   838.0    0.00 
 338   18:40   0.00   48.6    27    1.0    88     2.9   838.0    0.00 
 338   18:50   0.00   51.4    17    1.6    73     6.2   838.0    0.00 
 338   19:00   0.00   50.8    24    1.0    99     3.0   838.0    0.00 
 338   19:10   0.00   51.8    16    1.8    77     4.6   838.0    0.00 
 338   19:20   0.00   50.7    24    1.0     7     2.6   838.0    0.00 
 338   19:30   0.00   47.4    31    1.0    31     3.0   838.0    0.00 
 338   19:40   0.00   48.6    24    1.4    41     4.2   838.0    0.00 
 338   19:50   0.00   51.9    16    1.1   320     2.8   838.0    0.00 
 338   20:00   0.00   52.6    16    1.4   296     4.0   838.0    0.00 
 338   20:10   0.00   53.9    14    1.2   318     3.1   838.0    0.00 
 338   20:20   0.00   53.9    14    1.5   311     5.3   838.0    0.00 
 338   20:30   0.00   52.4    20    1.1    75     2.6   838.0    0.00 
 338   20:40   0.00   47.4    30    0.9    15     2.1   838.0    0.00 
 338   20:50   0.00   46.0    35    1.0    58     2.9   838.0    0.00 
 338   21:00   0.00   46.1    33    1.0    67     2.8   838.0    0.00 
 338   21:10   0.00   44.9    38    1.1   343     2.9   838.0    0.00 
 338   21:20   0.00   44.3    43    1.0    53     2.2   838.0    0.00 
 338   21:30   0.00   42.0    50    0.9    24     2.5   838.0    0.00 
 338   21:40   0.00   44.4    36    1.4   357     5.2   838.0    0.00 
 338   21:50   0.00   49.7    22    1.3   338     2.7   839.0    0.00 
 338   22:00   0.00   51.4    19    1.0   324     2.7   839.0    0.00 
 338   22:10   0.00   50.3    23    0.9    26     1.9   839.0    0.00 
 338   22:20   0.00   50.7    24    1.1   356     3.3   839.0    0.00 
 338   22:30   0.00   51.2    20    0.9   349     2.7   839.0    0.00 
 338   22:40   0.00   50.9    22    1.1    25     2.5   839.0    0.00 
 338   22:50   0.00   50.5    24    1.0    15     3.8   839.0    0.00 
 338   23:00   0.00   48.2    31    0.9    51     2.1   839.0    0.00 
 338   23:10   0.00   47.0    34    1.0    41     2.4   839.0    0.00 
 338   23:20   0.00   49.1    28    1.2    34     2.9   839.0    0.00 
 338   23:30   0.00   48.5    29    1.1    38     3.1   839.0    0.00 
 338   23:40   0.00   49.1    27    0.8    36     2.0   839.0    0.00 
 338   23:50   0.00   49.8    24    1.1    47     2.6   839.0    0.00 
 339    0:00   0.00   52.7    16    1.3    57     3.1   839.0    0.00 
 339    0:10   0.00   54.1    13    1.3    52     2.9   839.0    0.00 
 339    0:20   0.00   54.1    15    1.4    56     3.1   839.0    0.00 
 339    0:30   0.00   52.6    21    0.9     8     2.7   839.0    0.00 
 339    0:40   0.00   51.6    22    1.1    25     4.2   839.0    0.00 
 339    0:50   0.00   50.8    22    1.0    24     2.5   839.0    0.00 
 339    1:00   0.00   50.3    26    1.0   354     2.7   839.0    0.00 
 339    1:10   0.00   49.1    28    0.8   353     2.2   839.0    0.00 
 339    1:20   0.00   48.6    29    0.9   356     3.6   839.0    0.00 
 339    1:30   0.00   50.0    25    1.1   343     4.3   839.0    0.00 
 339    1:40   0.00   46.3    32    0.9    63     2.1   839.0    0.00 
 339    1:50   0.00   43.7    39    0.8   103     2.2   839.0    0.00 
 339    2:00   0.00   41.6    47    0.6    75     1.4   839.0    0.00 
 339    2:10   0.00   41.0    47    0.9    49     3.3   839.0    0.00 
 339    2:20   0.00   41.8    49    0.8    47     1.8   839.0    0.00 
 339    2:30   0.00   43.0    41    1.0    41     2.4   839.0    0.00 

Return to James Reserve graphs page.


Western Regional Climate Center,wrcc@dri.edu